createdAt,value
2019-04-02T00:00:35.401Z,4.35
2019-04-02T00:03:09.198Z,3.67
2019-04-02T00:05:43.273Z,3.89
2019-04-02T00:08:16.988Z,4.45
2019-04-02T00:10:52.077Z,4.73
2019-04-02T00:13:25.593Z,4.73
2019-04-02T00:15:59.329Z,4.86
2019-04-02T00:18:32.986Z,5.02
2019-04-02T00:21:06.641Z,5.26
2019-04-02T00:23:40.485Z,5.39
2019-04-02T00:26:14.781Z,4.69
2019-04-02T00:28:48.654Z,4.87
2019-04-02T00:31:22.309Z,5.16
2019-04-02T00:33:56.090Z,5.09
2019-04-02T00:36:29.738Z,4.79
2019-04-02T00:39:04.437Z,5.00
2019-04-02T00:41:38.002Z,5.08
2019-04-02T00:44:13.631Z,4.73
2019-04-02T00:46:47.007Z,5.12
2019-04-02T00:49:21.418Z,5.22
2019-04-02T00:51:54.882Z,6.99
2019-04-02T00:54:28.677Z,5.50
2019-04-02T00:57:02.328Z,5.80
2019-04-02T00:59:37.321Z,5.55
2019-04-02T01:02:10.968Z,5.70
2019-04-02T01:05:24.679Z,5.49
2019-04-02T01:08:40.058Z,5.46
2019-04-02T01:11:15.370Z,5.65
2019-04-02T01:13:49.262Z,6.03
2019-04-02T01:16:23.112Z,5.80
2019-04-02T01:18:56.677Z,6.27
2019-04-02T01:21:30.454Z,6.60
2019-04-02T01:24:03.777Z,6.48
2019-04-02T01:26:37.349Z,6.52
2019-04-02T01:29:19.499Z,6.72
2019-04-02T01:31:53.217Z,6.51
2019-04-02T01:34:26.983Z,6.50
2019-04-02T01:37:00.804Z,6.22
2019-04-02T01:39:34.925Z,6.65
2019-04-02T01:42:08.382Z,6.68
2019-04-02T01:45:23.652Z,6.38
2019-04-02T01:48:47.952Z,6.85
2019-04-02T01:54:36.263Z,7.00
2019-04-02T01:57:09.892Z,6.65
2019-04-02T01:59:45.395Z,7.48
2019-04-02T02:02:19.259Z,7.24
2019-04-02T02:04:53.341Z,7.55
2019-04-02T02:07:26.841Z,7.37
2019-04-02T02:10:00.701Z,6.93
2019-04-02T02:12:34.411Z,6.84
2019-04-02T02:15:09.139Z,6.76
2019-04-02T02:17:44.110Z,7.67
2019-04-02T02:20:17.998Z,7.96
2019-04-02T02:22:51.652Z,8.26
2019-04-02T02:25:25.694Z,7.52
2019-04-02T02:27:59.402Z,7.69
2019-04-02T02:30:33.152Z,7.83
2019-04-02T02:33:07.164Z,8.23
2019-04-02T02:35:41.360Z,7.29
2019-04-02T02:38:14.821Z,8.19
2019-04-02T02:41:42.346Z,7.91
2019-04-02T02:44:15.614Z,7.80
2019-04-02T02:46:49.291Z,7.58
2019-04-02T02:49:22.917Z,6.53
2019-04-02T02:51:56.746Z,7.25
2019-04-02T02:54:30.418Z,7.84
2019-04-02T02:57:04.032Z,7.29
2019-04-02T02:59:39.877Z,7.76
2019-04-02T03:02:13.528Z,8.03
2019-04-02T03:04:48.320Z,7.46
2019-04-02T03:07:23.225Z,7.81
2019-04-02T03:09:58.649Z,7.31
2019-04-02T03:12:32.187Z,7.09
2019-04-02T03:15:09.023Z,7.85
2019-04-02T03:17:42.641Z,7.40
2019-04-02T03:20:16.420Z,7.25
2019-04-02T03:22:50.128Z,7.90
2019-04-02T03:25:23.533Z,7.91
2019-04-02T03:27:57.199Z,7.73
2019-04-02T03:30:33.103Z,7.36
2019-04-02T03:33:08.252Z,7.37
2019-04-02T03:35:41.956Z,7.93
2019-04-02T03:38:16.196Z,8.28
2019-04-02T03:40:49.849Z,8.09
2019-04-02T03:47:39.542Z,8.04
2019-04-02T03:50:14.986Z,7.49
2019-04-02T03:52:48.335Z,7.23
2019-04-02T03:55:23.458Z,7.88
2019-04-02T03:57:57.310Z,8.64
2019-04-02T04:00:32.433Z,8.83
2019-04-02T04:03:06.500Z,8.66
2019-04-02T04:05:40.554Z,8.60
2019-04-02T04:08:14.361Z,7.83
2019-04-02T04:10:53.993Z,7.96
2019-04-02T04:13:27.858Z,7.80
2019-04-02T04:16:01.380Z,7.75
2019-04-02T04:18:34.912Z,7.28
2019-04-02T04:21:08.610Z,7.11
2019-04-02T04:24:06.950Z,7.42
2019-04-02T04:30:11.551Z,8.19
2019-04-02T04:34:23.096Z,8.65
2019-04-02T04:37:00.692Z,9.28
2019-04-02T04:39:21.171Z,9.14
2019-04-02T04:41:55.826Z,9.06
2019-04-02T04:44:31.652Z,8.50
2019-04-02T04:47:05.335Z,8.12
2019-04-02T04:49:39.046Z,7.72
2019-04-02T04:52:14.024Z,7.90
2019-04-02T04:54:47.554Z,7.71
2019-04-02T04:57:22.220Z,7.41
2019-04-02T04:59:55.882Z,7.27
2019-04-02T05:03:19.928Z,7.38
2019-04-02T05:09:25.923Z,8.19
2019-04-02T05:12:00.903Z,8.05
2019-04-02T05:14:37.081Z,7.39
2019-04-02T05:17:13.632Z,6.54
2019-04-02T05:19:50.950Z,6.34
2019-04-02T05:22:23.687Z,6.78
2019-04-02T05:24:57.503Z,6.84
2019-04-02T05:27:31.461Z,7.09
2019-04-02T05:30:06.202Z,7.08
2019-04-02T05:32:40.410Z,7.23
2019-04-02T05:35:14.495Z,7.59
2019-04-02T05:37:50.246Z,7.61
2019-04-02T05:40:23.436Z,7.75
2019-04-02T05:42:57.638Z,8.13
2019-04-02T05:45:31.201Z,7.69
2019-04-02T05:48:04.830Z,7.95
2019-04-02T05:50:38.378Z,8.04
2019-04-02T05:53:13.769Z,7.92
2019-04-02T05:55:53.071Z,8.24
2019-04-02T05:58:26.651Z,8.51
2019-04-02T06:01:02.460Z,8.59
2019-04-02T06:03:36.389Z,8.68
2019-04-02T06:06:09.778Z,8.16
2019-04-02T06:08:43.762Z,7.86
2019-04-02T06:11:17.779Z,7.54
2019-04-02T06:13:51.363Z,7.63
2019-04-02T06:16:24.733Z,8.02
2019-04-02T06:18:58.081Z,8.17
2019-04-02T06:21:31.622Z,8.81
2019-04-02T06:24:05.499Z,8.28
2019-04-02T06:26:39.250Z,7.96
2019-04-02T06:29:19.285Z,7.10
2019-04-02T06:31:54.219Z,7.21
2019-04-02T06:34:28.048Z,7.02
2019-04-02T06:37:02.929Z,6.90
2019-04-02T06:39:36.637Z,7.04
2019-04-02T06:42:13.211Z,7.47
2019-04-02T06:44:46.821Z,7.70
2019-04-02T06:47:23.055Z,7.83
2019-04-02T06:49:56.000Z,8.51
2019-04-02T06:52:29.819Z,8.70
2019-04-02T06:55:05.133Z,8.42
2019-04-02T06:57:41.327Z,8.51
2019-04-02T07:00:14.685Z,8.19
2019-04-02T07:02:48.902Z,8.38
2019-04-02T07:05:22.852Z,8.88
2019-04-02T07:07:58.385Z,9.18
2019-04-02T07:10:43.152Z,8.54
2019-04-02T07:13:07.029Z,8.49
2019-04-02T07:15:40.871Z,8.01
2019-04-02T07:18:14.625Z,7.84
2019-04-02T07:20:48.247Z,7.29
2019-04-02T07:23:22.052Z,7.40
2019-04-02T07:25:57.574Z,7.47
2019-04-02T07:28:31.552Z,7.26
2019-04-02T07:31:06.277Z,7.70
2019-04-02T07:33:43.383Z,8.26
2019-04-02T07:36:17.134Z,8.78
2019-04-02T07:38:52.091Z,8.57
2019-04-02T07:41:26.544Z,8.49
2019-04-02T07:44:00.412Z,8.74
2019-04-02T07:46:34.222Z,9.20
2019-04-02T07:49:08.040Z,8.74
2019-04-02T07:51:42.634Z,8.91
2019-04-02T07:54:16.650Z,9.23
2019-04-02T07:56:50.711Z,8.92
2019-04-02T07:59:26.823Z,9.09
2019-04-02T08:02:01.463Z,9.27
2019-04-02T08:04:35.709Z,8.96
2019-04-02T08:07:09.479Z,8.93
2019-04-02T08:09:44.221Z,8.99
2019-04-02T08:12:18.111Z,9.23
2019-04-02T08:14:52.988Z,8.91
2019-04-02T08:17:27.450Z,8.46
2019-04-02T08:20:01.663Z,8.52
2019-04-02T08:22:35.786Z,8.45
2019-04-02T08:25:14.914Z,8.86
2019-04-02T08:27:49.325Z,8.76
2019-04-02T08:30:23.987Z,8.36
2019-04-02T08:32:58.321Z,8.28
2019-04-02T08:35:33.417Z,8.07
2019-04-02T08:38:08.277Z,8.10
2019-04-02T08:40:43.245Z,8.19
2019-04-02T08:43:18.339Z,8.32
2019-04-02T08:45:52.588Z,7.84
2019-04-02T08:48:27.007Z,7.85
2019-04-02T08:51:00.881Z,8.05
2019-04-02T08:53:35.430Z,7.69
2019-04-02T08:56:09.623Z,7.55
2019-04-02T08:58:51.564Z,7.33
2019-04-02T09:01:20.149Z,7.60
2019-04-02T09:03:54.616Z,7.47
2019-04-02T09:06:28.357Z,7.30
2019-04-02T09:09:02.462Z,7.52
2019-04-02T09:11:38.542Z,7.23
2019-04-02T09:14:13.321Z,7.23
2019-04-02T09:16:50.912Z,7.10
2019-04-02T09:19:26.516Z,7.13
2019-04-02T09:22:00.638Z,6.96
2019-04-02T09:24:34.938Z,6.98
2019-04-02T09:27:09.024Z,6.86
2019-04-02T09:29:49.697Z,6.71
2019-04-02T09:32:35.505Z,6.71
2019-04-02T09:34:59.312Z,6.83
2019-04-02T09:37:33.399Z,6.84
2019-04-02T09:40:09.186Z,6.56
2019-04-02T09:42:44.575Z,6.50
2019-04-02T09:45:19.760Z,6.65
2019-04-02T09:47:54.404Z,6.75
2019-04-02T09:50:28.837Z,6.74
2019-04-02T09:53:03.056Z,6.48
2019-04-02T09:55:48.096Z,6.50
2019-04-02T09:58:14.050Z,6.57
2019-04-02T10:00:48.978Z,6.53
2019-04-02T10:03:24.162Z,6.32
2019-04-02T10:06:00.945Z,6.19
2019-04-02T10:08:35.666Z,6.09
2019-04-02T10:11:10.639Z,6.13
2019-04-02T10:13:45.164Z,6.36
2019-04-02T10:16:19.925Z,6.29
2019-04-02T10:19:17.180Z,6.26
2019-04-02T10:21:30.870Z,6.33
2019-04-02T10:24:05.956Z,6.34
2019-04-02T10:26:39.754Z,6.08
2019-04-02T10:29:14.502Z,6.12
2019-04-02T10:31:48.982Z,6.21
2019-04-02T10:34:23.142Z,6.20
2019-04-02T10:37:00.096Z,6.14
2019-04-02T10:39:36.880Z,6.23
2019-04-02T10:42:11.896Z,5.91
2019-04-02T10:44:50.020Z,5.90
2019-04-02T10:47:24.505Z,5.88
2019-04-02T10:49:58.775Z,5.99
2019-04-02T10:52:33.957Z,5.92
2019-04-02T10:55:09.469Z,5.86
2019-04-02T10:57:43.669Z,5.92
2019-04-02T11:00:20.087Z,5.84
2019-04-02T11:02:53.683Z,5.80
2019-04-02T11:05:29.386Z,5.82
2019-04-02T11:08:03.703Z,5.66
2019-04-02T11:10:37.917Z,5.54
2019-04-02T11:13:12.809Z,5.55
2019-04-02T11:15:52.315Z,5.47
2019-04-02T11:18:27.035Z,5.08
2019-04-02T11:21:07.862Z,5.01
2019-04-02T11:23:38.620Z,4.92
2019-04-02T11:26:13.641Z,4.69
2019-04-02T11:28:48.987Z,4.57
2019-04-02T11:31:26.021Z,4.71
2019-04-02T11:34:01.326Z,4.35
2019-04-02T11:36:36.995Z,4.48
2019-04-02T11:39:15.557Z,4.71
2019-04-02T11:41:52.522Z,4.65
2019-04-02T11:44:28.564Z,4.54
2019-04-02T11:47:03.481Z,4.48
2019-04-02T11:49:39.526Z,4.30
2019-04-02T11:52:14.115Z,4.23
2019-04-02T11:54:49.528Z,4.26
2019-04-02T11:57:27.677Z,4.05
2019-04-02T12:00:03.557Z,4.16
2019-04-02T12:02:40.033Z,3.93
2019-04-02T12:05:21.157Z,3.84
2019-04-02T12:08:14.460Z,3.99
2019-04-02T12:10:40.269Z,3.83
2019-04-02T12:13:14.171Z,3.84
2019-04-02T12:15:50.386Z,3.80
2019-04-02T12:18:24.285Z,3.58
2019-04-02T12:21:00.749Z,3.52
2019-04-02T12:23:35.118Z,3.59
2019-04-02T12:26:09.595Z,3.44
2019-04-02T12:28:44.227Z,3.42
2019-04-02T12:31:19.506Z,3.29
2019-04-02T12:33:54.127Z,3.40
2019-04-02T12:36:30.181Z,3.13
2019-04-02T12:39:06.035Z,3.33
2019-04-02T12:41:43.212Z,3.16
2019-04-02T12:44:17.784Z,3.20
2019-04-02T12:46:52.798Z,3.27
2019-04-02T12:49:29.793Z,3.07
2019-04-02T12:52:09.574Z,3.03
2019-04-02T12:54:48.807Z,2.76
2019-04-02T12:57:26.226Z,2.62
2019-04-02T13:00:01.599Z,2.84
2019-04-02T13:02:42.772Z,2.73
2019-04-02T13:05:17.707Z,2.64
2019-04-02T13:07:52.105Z,2.39
2019-04-02T13:10:26.664Z,2.43
2019-04-02T13:13:01.894Z,2.32
2019-04-02T13:15:36.285Z,2.38
2019-04-02T13:18:10.910Z,2.58
2019-04-02T13:20:45.601Z,2.44
2019-04-02T13:23:20.542Z,2.38
2019-04-02T13:25:55.369Z,2.35
2019-04-02T13:28:30.507Z,2.15
2019-04-02T13:31:08.135Z,2.01
2019-04-02T13:33:47.901Z,2.01
2019-04-02T13:36:24.282Z,2.29
2019-04-02T13:38:59.300Z,2.21
2019-04-02T13:41:33.885Z,2.04
2019-04-02T13:44:08.617Z,1.83
2019-04-02T13:46:43.388Z,2.00
2019-04-02T13:49:17.714Z,2.12
2019-04-02T13:52:00.273Z,2.09
2019-04-02T13:54:34.969Z,2.10
2019-04-02T13:57:08.302Z,1.79
2019-04-02T13:59:43.489Z,1.77
2019-04-02T14:02:18.493Z,1.66
2019-04-02T14:04:53.587Z,1.58
2019-04-02T14:07:28.248Z,1.47
2019-04-02T14:10:02.745Z,1.35
2019-04-02T14:12:38.371Z,1.36
2019-04-02T14:15:13.240Z,1.62
2019-04-02T14:17:47.227Z,1.68
2019-04-02T14:20:34.166Z,1.68
2019-04-02T14:23:27.636Z,1.67
2019-04-02T14:26:03.182Z,1.57
2019-04-02T14:28:37.415Z,1.44
2019-04-02T14:31:11.759Z,1.59
2019-04-02T14:33:47.380Z,1.51
2019-04-02T14:36:22.651Z,1.49
2019-04-02T14:38:59.177Z,1.43
2019-04-02T14:41:33.610Z,1.41
2019-04-02T14:44:07.470Z,1.53
2019-04-02T14:46:41.474Z,1.56
2019-04-02T14:49:15.340Z,1.52
2019-04-02T14:51:49.248Z,1.49
2019-04-02T14:54:24.618Z,1.43
2019-04-02T14:56:58.483Z,1.51
2019-04-02T14:59:32.728Z,1.32
2019-04-02T15:02:06.401Z,1.38
2019-04-02T15:04:40.156Z,1.65
2019-04-02T15:07:14.416Z,1.50
2019-04-02T15:09:50.405Z,1.47
2019-04-02T15:12:24.437Z,1.49
2019-04-02T15:15:01.294Z,1.55
2019-04-02T15:17:36.042Z,1.57
2019-04-02T15:20:10.655Z,1.57
2019-04-02T15:22:44.079Z,1.58
2019-04-02T15:25:18.183Z,1.71
2019-04-02T15:27:52.105Z,1.77
2019-04-02T15:30:25.978Z,1.78
2019-04-02T15:32:59.615Z,1.77
2019-04-02T15:35:34.977Z,1.68
2019-04-02T15:38:07.926Z,1.63
2019-04-02T15:40:41.536Z,1.60
2019-04-02T15:43:16.945Z,1.74
2019-04-02T15:45:50.587Z,1.55
2019-04-02T15:48:27.521Z,1.56
2019-04-02T15:51:00.549Z,1.71
2019-04-02T15:53:34.625Z,1.74
2019-04-02T15:56:08.499Z,1.53
2019-04-02T15:58:41.986Z,1.63
2019-04-02T16:01:16.084Z,1.58
2019-04-02T16:03:49.671Z,1.45
2019-04-02T16:06:24.487Z,1.50
2019-04-02T16:08:58.141Z,1.38
2019-04-02T16:11:31.558Z,1.23
2019-04-02T16:14:04.888Z,1.25
2019-04-02T16:16:39.442Z,1.17
2019-04-02T16:19:14.907Z,1.26
2019-04-02T16:21:48.402Z,1.37
2019-04-02T16:24:22.140Z,1.49
2019-04-02T16:26:55.605Z,1.58
2019-04-02T16:29:29.361Z,1.62
2019-04-02T16:32:02.864Z,1.64
2019-04-02T16:34:38.923Z,1.63
2019-04-02T16:37:13.735Z,1.59
2019-04-02T16:39:45.908Z,1.70
2019-04-02T16:42:21.909Z,1.68
2019-04-02T16:44:56.024Z,1.70
2019-04-02T16:47:29.749Z,1.71
2019-04-02T16:50:03.259Z,1.71
2019-04-02T16:52:38.134Z,1.64
2019-04-02T16:55:13.378Z,1.61
2019-04-02T16:57:47.165Z,1.41
2019-04-02T17:00:22.097Z,1.32
2019-04-02T17:02:55.835Z,1.39
2019-04-02T17:05:31.959Z,1.50
2019-04-02T17:08:06.018Z,1.65
2019-04-02T17:10:39.674Z,1.59
2019-04-02T17:13:14.694Z,1.67
2019-04-02T17:15:48.247Z,1.79
2019-04-02T17:18:21.953Z,1.63
2019-04-02T17:20:56.947Z,1.66
2019-04-02T17:23:30.627Z,1.64
2019-04-02T17:26:05.170Z,1.62
2019-04-02T17:28:38.445Z,1.71
2019-04-02T17:31:11.971Z,1.57
2019-04-02T17:33:45.665Z,1.47
2019-04-02T17:36:19.092Z,1.56
2019-04-02T17:38:52.750Z,1.64
2019-04-02T17:41:26.483Z,1.64
2019-04-02T17:44:00.125Z,1.64
2019-04-02T17:46:33.797Z,1.66
2019-04-02T17:49:07.513Z,1.61
2019-04-02T17:51:41.044Z,1.66
2019-04-02T17:54:14.717Z,1.49
2019-04-02T17:56:48.449Z,1.34
2019-04-02T17:59:23.378Z,1.47
2019-04-02T18:01:58.649Z,1.51
2019-04-02T18:04:42.281Z,1.32
2019-04-02T18:07:06.820Z,1.19
2019-04-02T18:09:40.563Z,1.19
2019-04-02T18:12:14.283Z,1.16
2019-04-02T18:14:48.082Z,1.30
2019-04-02T18:17:21.624Z,0.91
2019-04-02T18:19:55.139Z,0.86
2019-04-02T18:22:28.733Z,0.82
2019-04-02T18:25:02.450Z,0.82
2019-04-02T18:27:35.931Z,0.83
2019-04-02T18:30:10.692Z,1.03
2019-04-02T18:32:45.658Z,1.00
2019-04-02T18:35:38.722Z,1.09
2019-04-02T18:38:12.511Z,0.99
2019-04-02T18:40:46.258Z,1.02
2019-04-02T18:43:19.974Z,0.94
2019-04-02T18:45:53.555Z,0.76
2019-04-02T18:48:27.300Z,0.80
2019-04-02T18:51:01.092Z,0.79
2019-04-02T18:53:34.588Z,0.79
2019-04-02T18:56:10.798Z,0.75
2019-04-02T18:58:43.681Z,0.72
2019-04-02T19:01:18.646Z,0.76
2019-04-02T19:03:51.986Z,0.71
2019-04-02T19:06:25.575Z,0.88
2019-04-02T19:08:59.981Z,0.91
2019-04-02T19:11:34.200Z,0.91
2019-04-02T19:14:07.750Z,0.74
2019-04-02T19:16:42.907Z,0.88
2019-04-02T19:19:16.661Z,0.91
2019-04-02T19:21:50.306Z,0.93
2019-04-02T19:24:25.324Z,0.94
2019-04-02T19:26:59.090Z,1.02
2019-04-02T19:29:32.874Z,1.02
2019-04-02T19:32:06.351Z,1.02
2019-04-02T19:34:40.719Z,0.90
2019-04-02T19:37:15.082Z,0.85
2019-04-02T19:39:49.821Z,0.92
2019-04-02T19:42:23.961Z,1.03
2019-04-02T19:44:57.676Z,1.04
2019-04-02T19:47:31.337Z,1.04
2019-04-02T19:50:05.371Z,1.01
2019-04-02T19:52:39.315Z,1.11
2019-04-02T19:55:13.792Z,1.17
2019-04-02T19:57:49.021Z,1.17
2019-04-02T20:00:22.230Z,1.25
2019-04-02T20:02:56.006Z,1.32
2019-04-02T20:05:32.185Z,1.32
2019-04-02T20:08:05.038Z,1.40
2019-04-02T20:10:41.157Z,1.32
2019-04-02T20:13:14.644Z,1.33
2019-04-02T20:15:48.318Z,1.45
2019-04-02T20:18:21.947Z,1.54
2019-04-02T20:20:55.658Z,1.53
2019-04-02T20:23:30.636Z,1.51
2019-04-02T20:26:05.631Z,1.63
2019-04-02T20:28:39.630Z,1.58
2019-04-02T20:31:13.268Z,1.68
2019-04-02T20:33:46.997Z,1.63
2019-04-02T20:36:24.527Z,1.60
2019-04-02T20:38:58.710Z,1.49
2019-04-02T20:41:31.553Z,1.57
2019-04-02T20:44:05.253Z,1.53
2019-04-02T20:46:39.711Z,1.52
2019-04-02T20:49:13.148Z,1.58
2019-04-02T20:51:46.849Z,1.68
2019-04-02T20:54:21.927Z,1.65
2019-04-02T20:56:55.395Z,1.57
2019-04-02T20:59:29.179Z,1.64
2019-04-02T21:02:02.861Z,1.68
2019-04-02T21:04:36.670Z,1.76
2019-04-02T21:07:10.035Z,1.82
2019-04-02T21:09:43.837Z,1.71
2019-04-02T21:12:17.372Z,1.78
2019-04-02T21:14:50.894Z,1.81
2019-04-02T21:17:25.899Z,1.81
2019-04-02T21:20:00.868Z,1.77
2019-04-02T21:22:34.299Z,1.71
2019-04-02T21:25:09.147Z,1.79
2019-04-02T21:27:42.973Z,1.88
2019-04-02T21:30:16.910Z,1.87
2019-04-02T21:32:50.724Z,1.68
2019-04-02T21:35:24.274Z,1.81
2019-04-02T21:38:00.927Z,1.84
2019-04-02T21:40:35.196Z,1.68
2019-04-02T21:45:53.725Z,1.87
2019-04-02T21:48:27.276Z,1.80
2019-04-02T21:51:01.091Z,1.76
2019-04-02T21:53:34.567Z,1.68
2019-04-02T21:56:08.312Z,1.71
2019-04-02T21:58:44.164Z,1.82
2019-04-02T22:01:38.473Z,1.91
2019-04-02T22:04:12.245Z,2.02
2019-04-02T22:06:46.395Z,2.20
2019-04-02T22:09:20.180Z,2.36
2019-04-02T22:11:53.553Z,2.42
2019-04-02T22:14:27.156Z,2.54
2019-04-02T22:17:00.606Z,2.69
2019-04-02T22:19:34.375Z,2.85
2019-04-02T22:22:09.399Z,3.04
2019-04-02T22:24:43.346Z,3.19
2019-04-02T22:27:19.357Z,3.30
2019-04-02T22:29:53.255Z,3.32
2019-04-02T22:32:26.816Z,3.46
2019-04-02T22:35:01.993Z,3.72
2019-04-02T22:37:35.838Z,4.13
2019-04-02T22:40:09.964Z,4.51
2019-04-02T22:42:43.443Z,4.83
2019-04-02T22:45:18.062Z,5.21
2019-04-02T22:47:54.156Z,5.23
2019-04-02T22:50:26.192Z,4.88
2019-04-02T22:52:59.977Z,4.87
2019-04-02T22:55:34.986Z,4.90
2019-04-02T22:58:09.693Z,4.97
2019-04-02T23:00:43.344Z,5.07
2019-04-02T23:03:18.203Z,5.10
2019-04-02T23:05:52.006Z,5.11
2019-04-02T23:08:25.719Z,5.26
2019-04-02T23:10:59.373Z,5.27
2019-04-02T23:17:03.212Z,5.35
2019-04-02T23:19:36.706Z,5.43
2019-04-02T23:22:10.325Z,5.45
2019-04-02T23:24:43.885Z,5.51
2019-04-02T23:27:18.972Z,5.48
2019-04-02T23:29:52.889Z,5.62
2019-04-02T23:32:28.461Z,5.66
2019-04-02T23:35:02.059Z,5.61
2019-04-02T23:37:35.539Z,5.70
2019-04-02T23:40:11.201Z,5.82
2019-04-02T23:42:44.872Z,5.92
2019-04-02T23:45:18.585Z,6.10
2019-04-02T23:47:52.381Z,6.01
2019-04-02T23:50:26.552Z,6.20
2019-04-02T23:53:01.559Z,6.18
2019-04-02T23:55:35.093Z,6.27
2019-04-02T23:58:08.769Z,6.53
